OOCL Long Beach — VRYO4 — position and weather

sailwx.info

Track history (hours):
 
Tides and Currents Weather Stations Pressure Air Temp Water Temp Dewpoint Dewpoint Depression Visibility Wind Speed Wind Dir Waves Ship Positions

OOCL Long Beach

Last reported at 2014-Aug-18 20:09 UTC. Time now 2014-Aug-22 02:02 UTC.
Position N 35°29' E 141°17'.

Length 323 m; beam 42.8 m; draft 14.5 m.

Type: Cargo ship. MMSI: 477316000.

Date/timePositionNaut miles runAvg speedWind from/ knotsBaromVisibWave heightAir tempDewpointWater temp
2014-Aug-18 20:09N 35°29' E 141°17'1623.7
2014-Aug-18 19:29N 35°21' E 141°00'2223.3
2014-Aug-18 18:32N 35°09' E 140°38'2222.9
2014-Aug-18 17:34N 34°57' E 140°15'2323.4
2014-Aug-18 16:34N 34°46' E 139°49'2322.9
2014-Aug-18 15:34N 34°38' E 139°24'7522.6
2014-Aug-18 12:14N 34°03' E 138°03'113623.3
2014-Aug-16 11:33N 23°43' E 119°57'5021.2
2014-Aug-16 09:11N 22°53' E 120°01'1321.2
2014-Aug-16 08:33N 22°41' E 120°07'1413.6
2014-Aug-16 07:33N 22°33' E 120°19'1 0.9
2014-Aug-16 06:13N 22°34' E 120°19'0 0.0
2014-Aug-16 05:31N 22°34' E 120°19'0 0.0
2014-Aug-16 04:31N 22°34' E 120°19'0 0.0
2014-Aug-16 03:31N 22°34' E 120°19'0 0.0
2014-Aug-16 02:31N 22°34' E 120°19'0 0.0
2014-Aug-16 01:25N 22°34' E 120°19'0 0.0
2014-Aug-16 00:31N 22°34' E 120°19'0 0.0
2014-Aug-15 20:13N 22°34' E 120°19'0 0.0
2014-Aug-15 19:22N 22°34' E 120°19'0 0.0
2014-Aug-15 17:13N 22°34' E 120°19'0 0.0
2014-Aug-15 14:07N 22°34' E 120°19'0 0.0
2014-Aug-15 13:31N 22°34' E 120°19'1 1.2
2014-Aug-15 12:33N 22°33' E 120°19'3 3.0
2014-Aug-15 11:33N 22°32' E 120°16'10 9.7
2014-Aug-15 10:33N 22°31' E 120°06'2222.3
2014-Aug-15 09:33N 22°29' E 119°41'30021.2
2014-Aug-14 19:23N 22°34' E 114°16'1 0.3
2014-Aug-14 17:12N 22°34' E 114°16'0 0.0
2014-Aug-14 15:32N 22°34' E 114°16'0 0.0
2014-Aug-14 14:32N 22°34' E 114°16'0 0.0
2014-Aug-14 13:32N 22°34' E 114°16'0 0.0
2014-Aug-14 10:26N 22°34' E 114°16'0 0.0
2014-Aug-14 08:32N 22°34' E 114°16'0 0.0
2014-Aug-14 07:14N 22°34' E 114°16'0 0.0
2014-Aug-14 06:32N 22°34' E 114°16'0 0.0
2014-Aug-14 05:20N 22°34' E 114°16'0 0.0
2014-Aug-14 02:32N 22°34' E 114°16'0 0.1
2014-Aug-14 01:26N 22°34' E 114°16'19 3.8
2014-Aug-13 20:23N 22°18' E 114°06'1 0.0
2014-Aug-12 00:33N 22°19' E 114°06'9 7.3
2014-Aug-11 23:17N 22°11' E 114°10'0 0.2
2014-Aug-11 21:20N 22°10' E 114°10'0 0.0
2014-Aug-11 18:32N 22°10' E 114°10'1 0.2
2014-Aug-11 14:22N 22°10' E 114°11'7 7.9
2014-Aug-11 13:32N 22°16' E 114°07'1311.0
2014-Aug-11 12:21N 22°22' E 113°54'6 7.6
2014-Aug-11 11:33N 22°28' E 113°52'4 3.7
2014-Aug-11 10:24N 22°32' E 113°51'0 0.0
2014-Aug-11 09:30N 22°32' E 113°51'0 0.0
2014-Aug-11 08:24N 22°32' E 113°51'0 0.0
2014-Aug-11 07:24N 22°32' E 113°51'0 0.0
2014-Aug-11 06:18N 22°32' E 113°51'0 0.0
2014-Aug-11 05:30N 22°32' E 113°51'0 0.0
2014-Aug-11 04:06N 22°32' E 113°51'0 0.0
2014-Aug-11 03:24N 22°32' E 113°51'0 0.0
2014-Aug-11 02:06N 22°32' E 113°51'0 0.0
2014-Aug-11 01:18N 22°32' E 113°51'0 0.0
2014-Aug-11 00:24N 22°32' E 113°51'0 0.0
2014-Aug-10 20:06N 22°32' E 113°51'0 0.0
2014-Aug-10 18:12N 22°32' E 113°51'0 0.0
2014-Aug-10 17:06N 22°32' E 113°51'0 0.0
2014-Aug-10 16:30N 22°32' E 113°51'0 0.0
2014-Aug-10 13:30N 22°32' E 113°51'0 0.0
2014-Aug-10 12:30N 22°32' E 113°51'0 0.0
2014-Aug-10 09:12N 22°32' E 113°51'0 0.0
2014-Aug-10 06:24N 22°32' E 113°51'0 0.0
2014-Aug-10 04:24N 22°32' E 113°51'0 0.0
2014-Aug-10 03:24N 22°32' E 113°51'8 0.8
2014-Aug-09 17:33N 22°24' E 113°54'11 8.9
2014-Aug-09 16:17N 22°20' E 114°05'138 7.3
2014-Aug-08 21:28N 22°39' E 116°33'11 9.4
2014-Aug-08 20:19N 22°44' E 116°43'  
Track history (hours):
 
Tides and Currents Weather Stations Pressure Air Temp Water Temp Dewpoint Dewpoint Depression Visibility Wind Speed Wind Dir Waves Ship Positions

OOCL Long Beach

Last reported at 2014-Aug-18 20:09 UTC. Time now 2014-Aug-22 02:02 UTC.
Position N 35°29' E 141°17'.

Length 323 m; beam 42.8 m; draft 14.5 m.

Type: Cargo ship. MMSI: 477316000.

Date/timePositionNaut miles runAvg speedWind from/ knotsBaromVisibWave heightAir tempDewpointWater temp
2014-Aug-18 20:09N 35°29' E 141°17'1623.7
2014-Aug-18 19:29N 35°21' E 141°00'2223.3
2014-Aug-18 18:32N 35°09' E 140°38'2222.9
2014-Aug-18 17:34N 34°57' E 140°15'2323.4
2014-Aug-18 16:34N 34°46' E 139°49'2322.9
2014-Aug-18 15:34N 34°38' E 139°24'7522.6
2014-Aug-18 12:14N 34°03' E 138°03'113623.3
2014-Aug-16 11:33N 23°43' E 119°57'5021.2
2014-Aug-16 09:11N 22°53' E 120°01'1321.2
2014-Aug-16 08:33N 22°41' E 120°07'1413.6
2014-Aug-16 07:33N 22°33' E 120°19'1 0.9
2014-Aug-16 06:13N 22°34' E 120°19'0 0.0
2014-Aug-16 05:31N 22°34' E 120°19'0 0.0
2014-Aug-16 04:31N 22°34' E 120°19'0 0.0
2014-Aug-16 03:31N 22°34' E 120°19'0 0.0
2014-Aug-16 02:31N 22°34' E 120°19'0 0.0
2014-Aug-16 01:25N 22°34' E 120°19'0 0.0
2014-Aug-16 00:31N 22°34' E 120°19'0 0.0
2014-Aug-15 20:13N 22°34' E 120°19'0 0.0
2014-Aug-15 19:22N 22°34' E 120°19'0 0.0
2014-Aug-15 17:13N 22°34' E 120°19'0 0.0
2014-Aug-15 14:07N 22°34' E 120°19'0 0.0
2014-Aug-15 13:31N 22°34' E 120°19'1 1.2
2014-Aug-15 12:33N 22°33' E 120°19'3 3.0
2014-Aug-15 11:33N 22°32' E 120°16'10 9.7
2014-Aug-15 10:33N 22°31' E 120°06'2222.3
2014-Aug-15 09:33N 22°29' E 119°41'30021.2
2014-Aug-14 19:23N 22°34' E 114°16'1 0.3
2014-Aug-14 17:12N 22°34' E 114°16'0 0.0
2014-Aug-14 15:32N 22°34' E 114°16'0 0.0
2014-Aug-14 14:32N 22°34' E 114°16'0 0.0
2014-Aug-14 13:32N 22°34' E 114°16'0 0.0
2014-Aug-14 10:26N 22°34' E 114°16'0 0.0
2014-Aug-14 08:32N 22°34' E 114°16'0 0.0
2014-Aug-14 07:14N 22°34' E 114°16'0 0.0
2014-Aug-14 06:32N 22°34' E 114°16'0 0.0
2014-Aug-14 05:20N 22°34' E 114°16'0 0.0
2014-Aug-14 02:32N 22°34' E 114°16'0 0.1
2014-Aug-14 01:26N 22°34' E 114°16'19 3.8
2014-Aug-13 20:23N 22°18' E 114°06'1 0.0
2014-Aug-12 00:33N 22°19' E 114°06'9 7.3
2014-Aug-11 23:17N 22°11' E 114°10'0 0.2
2014-Aug-11 21:20N 22°10' E 114°10'0 0.0
2014-Aug-11 18:32N 22°10' E 114°10'1 0.2
2014-Aug-11 14:22N 22°10' E 114°11'7 7.9
2014-Aug-11 13:32N 22°16' E 114°07'1311.0
2014-Aug-11 12:21N 22°22' E 113°54'6 7.6
2014-Aug-11 11:33N 22°28' E 113°52'4 3.7
2014-Aug-11 10:24N 22°32' E 113°51'0 0.0
2014-Aug-11 09:30N 22°32' E 113°51'0 0.0
2014-Aug-11 08:24N 22°32' E 113°51'0 0.0
2014-Aug-11 07:24N 22°32' E 113°51'0 0.0
2014-Aug-11 06:18N 22°32' E 113°51'0 0.0
2014-Aug-11 05:30N 22°32' E 113°51'0 0.0
2014-Aug-11 04:06N 22°32' E 113°51'0 0.0
2014-Aug-11 03:24N 22°32' E 113°51'0 0.0
2014-Aug-11 02:06N 22°32' E 113°51'0 0.0
2014-Aug-11 01:18N 22°32' E 113°51'0 0.0
2014-Aug-11 00:24N 22°32' E 113°51'0 0.0
2014-Aug-10 20:06N 22°32' E 113°51'0 0.0
2014-Aug-10 18:12N 22°32' E 113°51'0 0.0
2014-Aug-10 17:06N 22°32' E 113°51'0 0.0
2014-Aug-10 16:30N 22°32' E 113°51'0 0.0
2014-Aug-10 13:30N 22°32' E 113°51'0 0.0
2014-Aug-10 12:30N 22°32' E 113°51'0 0.0
2014-Aug-10 09:12N 22°32' E 113°51'0 0.0
2014-Aug-10 06:24N 22°32' E 113°51'0 0.0
2014-Aug-10 04:24N 22°32' E 113°51'0 0.0
2014-Aug-10 03:24N 22°32' E 113°51'8 0.8
2014-Aug-09 17:33N 22°24' E 113°54'11 8.9
2014-Aug-09 16:17N 22°20' E 114°05'138 7.3
2014-Aug-08 21:28N 22°39' E 116°33'11 9.4
2014-Aug-08 20:19N 22°44' E 116°43'  

Dump ship's entire track history